createdAt,value
2024-04-05T00:00:24.450Z,50.26
2024-04-05T00:01:24.490Z,50.08
2024-04-05T00:02:24.475Z,49.99
2024-04-05T00:11:50.991Z,52.04
2024-04-05T00:12:13.879Z,50.78
2024-04-05T00:15:52.624Z,51.94
2024-04-05T00:16:22.672Z,50.43
2024-04-05T00:17:22.596Z,50.14
2024-04-05T00:18:22.594Z,49.99
2024-04-05T00:19:22.597Z,49.88
2024-04-05T00:20:22.586Z,49.80
2024-04-05T00:21:22.616Z,49.97
2024-04-05T00:24:04.042Z,51.67
2024-04-05T00:24:27.034Z,50.34
2024-04-05T00:25:26.988Z,50.10
2024-04-05T00:26:26.940Z,50.19
2024-04-05T00:27:57.061Z,50.30
2024-04-05T00:28:26.923Z,50.38
2024-04-05T00:29:27.051Z,50.21
2024-04-05T00:30:26.971Z,50.21
2024-04-05T00:31:26.984Z,50.14
2024-04-05T00:32:26.971Z,49.97
2024-04-05T00:33:27.002Z,49.88
2024-04-05T00:34:26.950Z,49.74
2024-04-05T00:35:26.954Z,49.67
2024-04-05T00:36:26.959Z,49.77
2024-04-05T00:37:26.965Z,49.85
2024-04-05T00:38:26.970Z,49.71
2024-04-05T00:39:26.944Z,49.82
2024-04-05T00:40:54.580Z,49.60
2024-04-05T00:41:26.952Z,49.84
2024-04-05T00:42:27.051Z,49.70
2024-04-05T00:43:27.056Z,50.09
2024-04-05T00:47:05.649Z,52.01
2024-04-05T00:47:35.679Z,50.52
2024-04-05T00:48:35.673Z,50.20
2024-04-05T00:49:35.694Z,50.15
2024-04-05T00:50:35.662Z,50.15
2024-04-05T00:51:35.658Z,50.22
2024-04-05T00:52:35.714Z,50.16
2024-04-05T00:53:35.708Z,50.16
2024-04-05T00:54:35.700Z,50.21
2024-04-05T00:55:35.701Z,50.13
2024-04-05T00:56:35.680Z,50.07
2024-04-05T00:57:35.693Z,50.05
2024-04-05T01:01:14.473Z,52.38
2024-04-05T01:01:44.424Z,50.75
2024-04-05T01:02:44.384Z,50.80
2024-04-05T01:04:15.946Z,50.68
2024-04-05T01:04:44.389Z,50.90
2024-04-05T01:09:28.733Z,53.28
2024-04-05T01:09:57.530Z,51.60
2024-04-05T01:10:57.463Z,51.24
2024-04-05T01:11:57.771Z,51.19
2024-04-05T01:15:43.175Z,53.77
2024-04-05T01:16:06.180Z,52.64
2024-04-05T01:17:06.165Z,52.11
2024-04-05T01:18:35.767Z,51.78
2024-04-05T01:19:06.464Z,52.05
2024-04-05T01:28:22.913Z,52.90
2024-04-05T01:28:49.942Z,52.16
2024-04-05T01:29:49.927Z,51.94
2024-04-05T01:33:28.959Z,53.38
2024-04-05T01:43:15.582Z,53.15
2024-04-05T01:43:44.055Z,52.04
2024-04-05T01:44:44.041Z,51.83
2024-04-05T01:46:14.135Z,52.08
2024-04-05T01:46:44.083Z,52.59
2024-04-05T01:49:15.630Z,53.74
2024-04-05T01:49:48.388Z,52.21
2024-04-05T01:53:28.610Z,53.61
2024-04-05T01:53:57.091Z,52.20
2024-04-05T01:54:57.178Z,51.96
2024-04-05T01:55:57.078Z,52.03
2024-04-05T01:56:57.162Z,51.83
2024-04-05T01:57:57.102Z,51.73
2024-04-05T01:58:57.096Z,51.60
2024-04-05T01:59:57.098Z,51.49
2024-04-05T02:02:48.171Z,53.43
2024-04-05T02:03:07.775Z,51.98
2024-04-05T02:04:07.681Z,51.10
2024-04-05T02:05:07.707Z,50.68
2024-04-05T02:06:07.750Z,50.70
2024-04-05T02:07:08.162Z,50.62
2024-04-05T02:08:07.781Z,50.42
2024-04-05T02:15:06.738Z,51.71
2024-04-05T02:15:29.411Z,50.61
2024-04-05T02:20:34.318Z,51.82
2024-04-05T02:21:01.536Z,50.43
2024-04-05T02:22:01.542Z,50.00
2024-04-05T02:25:47.242Z,51.76
2024-04-05T02:26:10.245Z,50.30
2024-04-05T02:27:10.235Z,49.77
2024-04-05T02:32:03.891Z,51.72
2024-04-05T02:36:30.312Z,52.40
2024-04-05T02:36:53.235Z,50.92
2024-04-05T02:37:53.193Z,50.32
2024-04-05T02:38:53.295Z,50.01
2024-04-05T02:39:53.191Z,49.91
2024-04-05T02:40:53.194Z,49.75
2024-04-05T02:41:53.270Z,49.88
2024-04-05T02:44:29.523Z,51.72
2024-04-05T02:44:57.562Z,50.52
2024-04-05T02:45:57.558Z,50.50
2024-04-05T02:46:57.616Z,50.65
2024-04-05T02:47:57.690Z,50.55
2024-04-05T02:50:32.994Z,52.94
2024-04-05T02:53:38.100Z,53.48
2024-04-05T02:54:10.621Z,52.64
2024-04-05T02:55:10.594Z,52.36
2024-04-05T02:57:46.095Z,54.20
2024-04-05T02:58:14.930Z,52.94
2024-04-05T02:59:14.957Z,52.58
2024-04-05T03:00:14.972Z,52.63
2024-04-05T03:01:15.008Z,52.69
2024-04-05T03:02:14.970Z,52.92
2024-04-05T03:04:51.895Z,55.47
2024-04-05T03:05:19.510Z,54.14
2024-04-05T03:06:19.697Z,54.16
2024-04-05T03:07:19.644Z,53.98
2024-04-05T03:08:19.667Z,53.55
2024-04-05T03:09:19.734Z,52.96
2024-04-05T03:10:19.758Z,52.75
2024-04-05T03:21:52.231Z,54.61
2024-04-05T03:22:21.058Z,53.29
2024-04-05T03:23:21.119Z,52.85
2024-04-05T03:24:21.112Z,53.08
2024-04-05T03:26:55.467Z,54.24
2024-04-05T03:27:25.458Z,52.88
2024-04-05T03:30:09.918Z,54.17
2024-04-05T03:30:29.858Z,52.86
2024-04-05T03:31:29.799Z,52.32
2024-04-05T03:32:29.813Z,52.17
2024-04-05T03:35:01.181Z,54.07
2024-04-05T03:35:34.143Z,52.63
2024-04-05T03:36:34.115Z,52.33
2024-04-05T03:38:11.448Z,52.31
2024-04-05T03:38:34.126Z,52.67
2024-04-05T03:39:34.155Z,52.38
2024-04-05T03:40:34.150Z,52.21
2024-04-05T03:43:05.887Z,54.20
2024-04-05T03:52:59.012Z,54.81
2024-04-05T03:53:25.818Z,53.74
2024-04-05T03:56:03.226Z,54.85
2024-04-05T03:56:30.151Z,53.45
2024-04-05T04:01:39.153Z,54.77
2024-04-05T04:02:01.684Z,53.30
2024-04-05T04:03:01.583Z,52.89
2024-04-05T04:08:46.167Z,54.96
2024-04-05T04:09:18.961Z,53.50
2024-04-05T04:11:54.368Z,55.15
2024-04-05T04:12:23.293Z,53.43
2024-04-05T04:19:17.778Z,54.92
2024-04-05T04:23:28.968Z,54.79
2024-04-05T04:26:48.859Z,55.08
2024-04-05T04:29:03.405Z,55.26
2024-04-05T04:29:26.245Z,53.92
2024-04-05T04:30:26.160Z,53.31
2024-04-05T04:31:26.213Z,53.23
2024-04-05T04:32:26.426Z,53.15
2024-04-05T04:33:57.750Z,52.99
2024-04-05T04:34:26.163Z,53.16
2024-04-05T04:41:25.010Z,55.29
2024-04-05T04:41:47.933Z,53.94
2024-04-05T04:45:34.017Z,55.58
2024-04-05T04:45:56.726Z,54.29
2024-04-05T04:46:56.620Z,53.71
2024-04-05T04:48:27.045Z,53.58
2024-04-05T04:48:56.618Z,53.88
2024-04-05T04:49:58.165Z,53.60
2024-04-05T04:50:56.633Z,53.54
2024-04-05T04:56:02.096Z,55.73
2024-04-05T04:56:24.818Z,54.11
2024-04-05T04:57:24.803Z,53.38
2024-04-05T04:58:24.777Z,53.41
2024-04-05T04:59:24.925Z,53.25
2024-04-05T05:00:24.893Z,53.19
2024-04-05T05:01:24.927Z,53.18
2024-04-05T05:02:24.788Z,53.19
2024-04-05T05:03:24.811Z,53.12
2024-04-05T05:04:24.882Z,53.41
2024-04-05T05:05:24.932Z,53.36
2024-04-05T05:06:24.792Z,53.17
2024-04-05T05:07:25.107Z,53.15
2024-04-05T05:08:24.806Z,53.33
2024-04-05T05:09:24.802Z,53.61
2024-04-05T05:10:32.244Z,53.72
2024-04-05T05:11:32.246Z,53.69
2024-04-05T05:14:06.438Z,55.31
2024-04-05T05:18:35.959Z,55.60
2024-04-05T05:20:54.076Z,55.78
2024-04-05T05:21:55.350Z,54.71
2024-04-05T05:23:47.026Z,55.69
2024-04-05T05:24:17.440Z,54.23
2024-04-05T05:25:17.398Z,53.86
2024-04-05T05:26:17.405Z,53.70
2024-04-05T05:27:17.584Z,53.62
2024-04-05T05:28:17.412Z,53.52
2024-04-05T05:34:12.082Z,55.54
2024-04-05T05:34:34.798Z,54.14
2024-04-05T05:35:34.786Z,53.90
2024-04-05T05:38:10.598Z,55.52
2024-04-05T05:38:39.118Z,54.13
2024-04-05T05:44:27.679Z,55.42
2024-04-05T05:44:56.574Z,54.00
2024-04-05T05:47:41.172Z,55.45
2024-04-05T05:48:13.803Z,53.77
2024-04-05T05:55:34.798Z,55.21
2024-04-05T05:55:54.579Z,53.88
2024-04-05T05:56:54.602Z,53.31
2024-04-05T06:02:52.356Z,54.72
2024-04-05T06:03:21.208Z,53.39
2024-04-05T06:05:56.947Z,54.79
2024-04-05T06:06:25.455Z,53.34
2024-04-05T06:07:25.419Z,53.23
2024-04-05T06:08:25.427Z,53.00
2024-04-05T06:09:25.453Z,52.82
2024-04-05T06:10:56.480Z,52.73
2024-04-05T06:11:25.531Z,53.10
2024-04-05T06:12:25.905Z,52.74
2024-04-05T06:13:25.404Z,52.71
2024-04-05T06:20:19.956Z,54.56
2024-04-05T06:20:47.177Z,53.36
2024-04-05T06:21:47.166Z,52.92
2024-04-05T06:26:37.528Z,54.59
2024-04-05T06:27:00.246Z,53.19
2024-04-05T06:28:00.496Z,53.14
2024-04-05T06:29:00.198Z,53.40
2024-04-05T06:30:00.276Z,53.61
2024-04-05T06:31:00.218Z,53.71
2024-04-05T06:36:45.589Z,56.62
2024-04-05T06:37:17.588Z,54.84
2024-04-05T06:38:17.595Z,54.69
2024-04-05T06:39:17.607Z,54.88
2024-04-05T06:40:17.667Z,54.60
2024-04-05T06:49:44.189Z,55.52
2024-04-05T06:50:11.473Z,54.46
2024-04-05T06:51:11.384Z,54.05
2024-04-05T06:52:11.365Z,54.14
2024-04-05T06:54:53.194Z,56.13
2024-04-05T06:55:15.720Z,54.87
2024-04-05T06:59:08.749Z,56.04
2024-04-05T07:05:26.228Z,55.50
2024-04-05T07:05:50.481Z,54.53
2024-04-05T07:09:30.358Z,55.98
2024-04-05T07:09:58.987Z,54.32
2024-04-05T07:11:26.856Z,53.99
2024-04-05T07:11:58.945Z,54.14
2024-04-05T07:13:28.886Z,53.97
2024-04-05T07:13:58.990Z,54.22
2024-04-05T07:15:32.316Z,53.90
2024-04-05T07:15:59.039Z,54.35
2024-04-05T07:16:59.059Z,54.05
2024-04-05T07:17:59.055Z,54.18
2024-04-05T07:18:59.036Z,54.09
2024-04-05T07:19:58.986Z,54.14
2024-04-05T07:20:58.955Z,54.28
2024-04-05T07:21:58.992Z,54.28
2024-04-05T07:22:59.061Z,54.06
2024-04-05T07:23:59.014Z,54.20
2024-04-05T07:24:59.090Z,54.02
2024-04-05T07:25:59.009Z,54.03
2024-04-05T07:27:00.039Z,54.00
2024-04-05T07:28:27.939Z,54.04
2024-04-05T07:28:58.948Z,54.49
2024-04-05T07:31:53.216Z,56.17
2024-04-05T07:32:22.259Z,54.70
2024-04-05T07:33:22.203Z,54.06
2024-04-05T07:34:22.207Z,53.99
2024-04-05T07:35:54.330Z,53.78
2024-04-05T07:36:23.859Z,54.15
2024-04-05T07:39:05.063Z,55.75
2024-04-05T07:42:05.384Z,55.75
2024-04-05T07:42:35.327Z,54.17
2024-04-05T07:43:35.364Z,53.86
2024-04-05T07:44:35.332Z,53.73
2024-04-05T07:45:35.409Z,53.69
2024-04-05T07:46:35.353Z,53.45
2024-04-05T07:47:35.489Z,53.16
2024-04-05T07:48:35.343Z,53.27
2024-04-05T07:49:35.376Z,53.64
2024-04-05T07:50:35.408Z,53.70
2024-04-05T07:51:35.327Z,53.42
2024-04-05T07:52:35.567Z,53.18
2024-04-05T07:53:35.421Z,53.01
2024-04-05T07:54:35.423Z,52.92
2024-04-05T07:55:35.470Z,52.93
2024-04-05T07:56:35.467Z,52.92
2024-04-05T07:57:35.582Z,53.01
2024-04-05T07:58:35.419Z,52.90
2024-04-05T07:59:35.467Z,52.77
2024-04-05T08:00:35.485Z,52.58
2024-04-05T08:01:35.534Z,52.70
2024-04-05T08:02:35.382Z,52.53
2024-04-05T08:03:35.397Z,52.45
2024-04-05T08:04:35.401Z,52.43
2024-04-05T08:05:35.403Z,52.51
2024-04-05T08:06:35.418Z,52.45
2024-04-05T08:07:35.692Z,52.38
2024-04-05T08:08:35.426Z,52.62
2024-04-05T08:09:35.379Z,52.20
2024-04-05T08:10:35.420Z,52.07
2024-04-05T08:11:35.406Z,51.88
2024-04-05T08:12:35.399Z,51.77
2024-04-05T08:13:36.083Z,51.21
2024-04-05T08:14:35.418Z,51.25
2024-04-05T08:15:35.423Z,51.17
2024-04-05T08:16:35.418Z,51.33
2024-04-05T08:17:35.721Z,51.53
2024-04-05T08:18:35.507Z,51.58
2024-04-05T08:19:35.409Z,51.70
2024-04-05T08:20:35.430Z,51.68
2024-04-05T08:21:35.421Z,51.13
2024-04-05T08:22:35.712Z,50.98
2024-04-05T08:23:35.424Z,50.76
2024-04-05T08:24:35.414Z,50.86
2024-04-05T08:25:35.434Z,51.02
2024-04-05T08:26:35.428Z,51.03
2024-04-05T08:27:35.590Z,51.17
2024-04-05T08:28:35.405Z,50.98
2024-04-05T08:29:35.447Z,51.12
2024-04-05T08:30:35.445Z,50.96
2024-04-05T08:31:35.474Z,50.77
2024-04-05T08:32:35.626Z,50.83
2024-04-05T08:33:35.433Z,50.81
2024-04-05T08:34:35.421Z,50.52
2024-04-05T08:35:35.424Z,50.57
2024-04-05T08:36:35.416Z,50.60
2024-04-05T08:37:35.466Z,50.59
2024-04-05T08:38:35.437Z,50.37
2024-04-05T08:39:35.484Z,50.11
2024-04-05T08:40:35.502Z,49.95
2024-04-05T08:41:35.547Z,49.77
2024-04-05T08:42:35.695Z,49.82
2024-04-05T08:43:35.586Z,49.48
2024-04-05T08:44:35.638Z,49.64
2024-04-05T08:45:35.628Z,49.89
2024-04-05T08:46:35.596Z,49.68
2024-04-05T08:47:36.113Z,49.40
2024-04-05T08:48:35.721Z,49.51
2024-04-05T08:49:35.685Z,49.41
2024-04-05T08:50:35.686Z,49.61
2024-04-05T08:51:35.757Z,49.53
2024-04-05T08:52:35.785Z,49.43
2024-04-05T08:53:36.575Z,49.36
2024-04-05T08:54:35.796Z,49.44
2024-04-05T08:55:35.855Z,49.11
2024-04-05T08:56:35.918Z,48.86
2024-04-05T08:57:36.111Z,48.92
2024-04-05T08:58:36.035Z,48.71
2024-04-05T08:59:36.171Z,48.08
2024-04-05T09:00:36.221Z,48.10
2024-04-05T09:01:36.290Z,48.05
2024-04-05T09:02:36.605Z,47.92
2024-04-05T09:03:36.361Z,47.65
2024-04-05T09:04:36.420Z,47.48
2024-04-05T09:05:36.440Z,47.67
2024-04-05T09:06:36.524Z,47.98
2024-04-05T09:07:36.599Z,47.69
2024-04-05T09:08:36.629Z,47.26
2024-04-05T09:09:45.524Z,47.05
2024-04-05T09:10:37.731Z,47.07
2024-04-05T09:11:36.707Z,46.52
2024-04-05T09:12:37.102Z,46.55
2024-04-05T09:13:36.689Z,46.62
2024-04-05T09:14:36.756Z,46.49
2024-04-05T09:15:36.684Z,46.63
2024-04-05T09:16:36.681Z,47.10
2024-04-05T09:17:37.076Z,46.79
2024-04-05T09:18:36.714Z,46.68
2024-04-05T09:19:36.750Z,46.72
2024-04-05T09:20:36.691Z,46.75
2024-04-05T09:21:36.710Z,46.52
2024-04-05T09:22:37.140Z,46.22
2024-04-05T09:23:36.791Z,46.16
2024-04-05T09:24:36.837Z,46.33
2024-04-05T09:25:36.848Z,46.10
2024-04-05T09:26:36.854Z,45.65
2024-04-05T09:27:37.072Z,45.23
2024-04-05T09:28:36.887Z,44.95
2024-04-05T09:29:36.873Z,44.54
2024-04-05T09:30:36.875Z,44.71
2024-04-05T09:31:36.933Z,44.37
2024-04-05T09:32:36.918Z,44.28
2024-04-05T09:33:37.001Z,44.32
2024-04-05T09:34:37.038Z,44.60
2024-04-05T09:35:37.119Z,44.43
2024-04-05T09:36:37.195Z,43.89
2024-04-05T09:37:37.580Z,43.84
2024-04-05T09:38:37.240Z,44.07
2024-04-05T09:39:37.315Z,43.90
2024-04-05T09:40:37.334Z,43.94
2024-04-05T09:41:37.364Z,43.83
2024-04-05T09:42:37.392Z,43.57
2024-04-05T09:43:52.514Z,43.85
2024-04-05T09:44:38.480Z,43.56
2024-04-05T09:45:37.456Z,43.24
2024-04-05T09:46:37.502Z,43.55
2024-04-05T09:47:37.761Z,43.03
2024-04-05T09:48:37.447Z,43.10
2024-04-05T09:49:37.471Z,43.28
2024-04-05T09:50:37.536Z,42.37
2024-04-05T09:51:37.477Z,42.52
2024-04-05T09:52:37.584Z,42.69
2024-04-05T09:53:37.453Z,42.24
2024-04-05T09:54:37.465Z,42.38
2024-04-05T09:55:37.488Z,42.65
2024-04-05T09:56:37.507Z,42.16
2024-04-05T09:57:37.548Z,41.83
2024-04-05T09:58:37.585Z,41.61
2024-04-05T09:59:38.072Z,41.71
2024-04-05T10:00:38.606Z,41.61
2024-04-05T10:01:37.644Z,41.37
2024-04-05T10:02:37.611Z,41.53
2024-04-05T10:03:37.681Z,41.31
2024-04-05T10:04:38.598Z,41.30
2024-04-05T10:05:37.786Z,41.39
2024-04-05T10:06:37.838Z,41.06
2024-04-05T10:07:37.958Z,40.96
2024-04-05T10:08:38.007Z,41.02
2024-04-05T10:09:38.061Z,41.15
2024-04-05T10:10:38.157Z,41.05
2024-04-05T10:11:38.207Z,40.80
2024-04-05T10:12:38.342Z,40.71
2024-04-05T10:13:38.354Z,40.80
2024-04-05T10:14:38.349Z,40.11
2024-04-05T10:15:38.385Z,39.76
2024-04-05T10:16:38.536Z,39.93
2024-04-05T10:17:38.655Z,39.31
2024-04-05T10:18:38.542Z,38.85
2024-04-05T10:19:38.589Z,36.89
2024-04-05T10:20:38.633Z,36.00
2024-04-05T10:21:38.699Z,36.20
2024-04-05T10:22:38.719Z,35.77
2024-04-05T10:23:38.780Z,35.53
2024-04-05T10:24:38.787Z,35.70
2024-04-05T10:25:38.830Z,35.37
2024-04-05T10:26:38.837Z,35.55
2024-04-05T10:27:39.117Z,33.71
2024-04-05T10:28:38.916Z,33.82
2024-04-05T10:29:41.385Z,34.05
2024-04-05T10:30:39.130Z,34.22
2024-04-05T10:31:39.188Z,33.82
2024-04-05T10:32:39.249Z,33.89
2024-04-05T10:33:39.285Z,34.25
2024-04-05T10:34:39.324Z,34.80
2024-04-05T10:35:39.338Z,34.19
2024-04-05T10:36:39.352Z,33.94
2024-04-05T10:37:39.627Z,34.10
2024-04-05T10:38:46.623Z,33.75
2024-04-05T10:39:40.481Z,34.27
2024-04-05T10:40:39.523Z,34.51
2024-04-05T10:41:39.491Z,33.69
2024-04-05T10:42:39.629Z,33.50
2024-04-05T10:43:39.487Z,33.80
2024-04-05T10:44:39.481Z,33.13
2024-04-05T10:45:39.477Z,33.03
2024-04-05T10:46:39.480Z,33.02
2024-04-05T10:47:39.594Z,33.35
2024-04-05T10:48:39.497Z,33.08
2024-04-05T10:49:39.611Z,33.07
2024-04-05T10:50:39.532Z,33.58
2024-04-05T10:51:39.579Z,33.76
2024-04-05T10:52:39.639Z,33.48
2024-04-05T10:53:39.643Z,33.74
2024-04-05T10:54:39.650Z,33.60
2024-04-05T10:55:39.664Z,33.67
2024-04-05T10:56:39.694Z,32.89
2024-04-05T10:57:40.102Z,32.51
2024-04-05T10:58:39.704Z,32.29
2024-04-05T10:59:39.757Z,32.50
2024-04-05T11:00:39.789Z,32.75
2024-04-05T11:01:39.822Z,32.84
2024-04-05T11:02:40.145Z,33.09
2024-04-05T11:03:39.821Z,32.87
2024-04-05T11:04:39.858Z,32.13
2024-04-05T11:05:39.866Z,32.09
2024-04-05T11:06:39.856Z,32.65
2024-04-05T11:07:39.875Z,32.71
2024-04-05T11:08:39.907Z,32.87
2024-04-05T11:09:39.928Z,32.39
2024-04-05T11:10:39.951Z,32.59
2024-04-05T11:11:40.025Z,32.73
2024-04-05T11:12:40.119Z,32.65
2024-04-05T11:13:40.213Z,31.61
2024-04-05T11:14:40.258Z,31.47
2024-04-05T11:15:40.292Z,32.28
2024-04-05T11:16:40.344Z,31.91
2024-04-05T11:17:40.420Z,31.86
2024-04-05T11:18:40.634Z,31.08
2024-04-05T11:19:40.528Z,31.40
2024-04-05T11:20:40.599Z,31.79
2024-04-05T11:21:40.662Z,32.32
2024-04-05T11:22:40.728Z,32.00
2024-04-05T11:23:40.774Z,31.81
2024-04-05T11:24:40.834Z,31.95
2024-04-05T11:25:40.892Z,31.48
2024-04-05T11:26:40.927Z,31.75
2024-04-05T11:27:40.919Z,31.87
2024-04-05T11:28:41.116Z,31.83
2024-04-05T11:29:41.050Z,31.13
2024-04-05T11:30:41.171Z,29.71
2024-04-05T11:31:41.093Z,30.64
2024-04-05T11:32:41.096Z,30.56
2024-04-05T11:33:41.127Z,31.06
2024-04-05T11:34:41.160Z,31.40
2024-04-05T11:35:41.258Z,31.62
2024-04-05T11:36:41.295Z,30.99
2024-04-05T11:37:41.306Z,30.44
2024-04-05T11:38:41.666Z,30.19
2024-04-05T11:39:41.367Z,30.03
2024-04-05T11:40:41.494Z,30.49
2024-04-05T11:41:41.413Z,31.00
2024-04-05T11:42:41.471Z,30.36
2024-04-05T11:43:41.526Z,30.35
2024-04-05T11:44:41.557Z,29.86
2024-04-05T11:45:41.645Z,30.21
2024-04-05T11:46:41.653Z,30.88
2024-04-05T11:47:41.652Z,30.20
2024-04-05T11:48:41.667Z,29.88
2024-04-05T11:49:41.786Z,29.93
2024-04-05T11:50:41.776Z,30.33
2024-04-05T11:51:41.758Z,30.41
2024-04-05T11:52:41.844Z,30.29
2024-04-05T11:53:41.850Z,29.97
2024-04-05T11:54:41.832Z,30.64
2024-04-05T11:55:41.827Z,30.12
2024-04-05T11:56:41.841Z,30.81
2024-04-05T11:57:41.879Z,31.25
2024-04-05T11:58:42.151Z,30.67
2024-04-05T11:59:41.963Z,30.76
2024-04-05T12:00:42.059Z,31.05
2024-04-05T12:01:42.106Z,31.03
2024-04-05T12:03:20.826Z,30.06
2024-04-05T12:04:20.703Z,30.51
2024-04-05T12:05:20.758Z,30.49
2024-04-05T12:06:20.710Z,30.80
2024-04-05T12:07:20.727Z,29.98
2024-04-05T12:08:20.772Z,30.24
2024-04-05T12:09:20.705Z,29.84
2024-04-05T12:10:20.723Z,30.18
2024-04-05T12:11:20.747Z,29.91
2024-04-05T12:12:20.733Z,30.19
2024-04-05T12:13:20.812Z,30.11
2024-04-05T12:14:20.721Z,29.50
2024-04-05T12:15:20.766Z,29.46
2024-04-05T12:16:20.742Z,29.24
2024-04-05T12:17:20.762Z,28.91
2024-04-05T12:18:20.756Z,28.72
2024-04-05T12:19:20.752Z,28.41
2024-04-05T12:20:20.736Z,28.85
2024-04-05T12:21:20.759Z,29.23
2024-04-05T12:22:20.756Z,28.33
2024-04-05T12:23:20.876Z,28.50
2024-04-05T12:24:20.741Z,28.27
2024-04-05T12:25:20.744Z,27.87
2024-04-05T12:26:25.252Z,27.98
2024-04-05T12:27:21.767Z,27.84
2024-04-05T12:28:21.334Z,28.23
2024-04-05T12:29:20.923Z,27.98
2024-04-05T12:30:20.759Z,27.49
2024-04-05T12:31:20.749Z,27.06
2024-04-05T12:32:20.777Z,27.38
2024-04-05T12:33:20.782Z,27.96
2024-04-05T12:34:20.754Z,28.16
2024-04-05T12:35:20.765Z,28.15
2024-04-05T12:36:20.776Z,27.31
2024-04-05T12:37:20.801Z,27.19
2024-04-05T12:38:34.838Z,27.50
2024-04-05T12:39:21.784Z,27.14
2024-04-05T12:40:20.794Z,26.84
2024-04-05T12:41:20.797Z,26.49
2024-04-05T12:42:20.800Z,26.85
2024-04-05T12:43:20.848Z,27.02
2024-04-05T12:44:21.052Z,26.97
2024-04-05T12:45:20.809Z,26.90
2024-04-05T12:46:20.775Z,27.17
2024-04-05T12:47:20.794Z,27.20
2024-04-05T12:48:20.913Z,26.97
2024-04-05T12:49:20.861Z,26.75
2024-04-05T12:50:21.192Z,27.00
2024-04-05T12:51:20.809Z,27.34
2024-04-05T12:52:20.789Z,27.04
2024-04-05T12:53:20.816Z,26.52
2024-04-05T12:54:20.798Z,26.77
2024-04-05T12:55:20.803Z,26.95
2024-04-05T12:56:20.823Z,26.82
2024-04-05T12:57:20.818Z,27.02
2024-04-05T12:58:20.834Z,27.09
2024-04-05T12:59:20.862Z,26.79
2024-04-05T13:00:20.864Z,27.20
2024-04-05T13:01:20.998Z,27.21
2024-04-05T13:02:21.241Z,27.51
2024-04-05T13:03:21.348Z,27.63
2024-04-05T13:04:20.984Z,27.52
2024-04-05T13:05:21.020Z,27.19
2024-04-05T13:06:21.020Z,27.40
2024-04-05T13:07:21.043Z,26.54
2024-04-05T13:08:21.226Z,26.39
2024-04-05T13:09:21.096Z,25.94
2024-04-05T13:10:21.104Z,26.24
2024-04-05T13:11:21.114Z,26.29
2024-04-05T13:12:21.144Z,26.35
2024-04-05T13:13:21.350Z,26.52
2024-04-05T13:14:21.233Z,26.43
2024-04-05T13:15:21.223Z,26.19
2024-04-05T13:16:21.215Z,26.48
2024-04-05T13:17:21.261Z,26.68
2024-04-05T13:18:21.449Z,26.57
2024-04-05T13:19:21.281Z,26.89
2024-04-05T13:20:21.315Z,27.11
2024-04-05T13:21:21.328Z,27.24
2024-04-05T13:22:21.370Z,26.98
2024-04-05T13:23:21.904Z,27.00
2024-04-05T13:24:21.415Z,26.66
2024-04-05T13:25:21.439Z,27.12
2024-04-05T13:26:21.821Z,26.82
2024-04-05T13:27:21.475Z,26.31
2024-04-05T13:28:21.511Z,26.85
2024-04-05T13:29:21.522Z,26.45
2024-04-05T13:30:21.530Z,25.83
2024-04-05T13:31:21.549Z,26.33
2024-04-05T13:32:21.578Z,26.44
2024-04-05T13:33:21.581Z,26.57
2024-04-05T13:34:21.589Z,26.46
2024-04-05T13:35:21.632Z,26.48
2024-04-05T13:36:21.642Z,26.61
2024-04-05T13:37:21.703Z,26.59
2024-04-05T13:38:21.691Z,26.68
2024-04-05T13:39:21.717Z,26.51
2024-04-05T13:40:21.756Z,26.61
2024-04-05T13:41:21.849Z,26.60
2024-04-05T13:42:21.809Z,26.58
2024-04-05T13:43:21.878Z,26.60
2024-04-05T13:44:21.815Z,26.00
2024-04-05T13:45:21.835Z,26.55
2024-04-05T13:46:21.877Z,26.34
2024-04-05T13:47:21.967Z,26.71
2024-04-05T13:48:21.966Z,26.48
2024-04-05T13:49:22.002Z,26.45
2024-04-05T13:50:21.964Z,26.36
2024-04-05T13:51:22.102Z,26.23
2024-04-05T13:52:22.041Z,25.98
2024-04-05T13:53:22.092Z,25.93
2024-04-05T13:54:22.162Z,26.33
2024-04-05T13:55:22.198Z,26.73
2024-04-05T13:56:22.228Z,26.60
2024-04-05T13:57:22.332Z,26.65
2024-04-05T13:58:22.268Z,26.22
2024-04-05T13:59:22.297Z,25.75
2024-04-05T14:00:22.352Z,26.23
2024-04-05T14:01:22.359Z,26.18
2024-04-05T14:02:22.389Z,26.60
2024-04-05T14:03:22.461Z,26.39
2024-04-05T14:04:22.495Z,25.94
2024-04-05T14:05:22.518Z,26.00
2024-04-05T14:06:22.595Z,26.04
2024-04-05T14:07:22.657Z,26.49
2024-04-05T14:08:22.700Z,26.15
2024-04-05T14:09:22.746Z,25.96
2024-04-05T14:10:22.746Z,25.99
2024-04-05T14:11:22.794Z,26.04
2024-04-05T14:12:22.804Z,26.04
2024-04-05T14:13:22.892Z,26.13
2024-04-05T14:14:22.901Z,26.19
2024-04-05T14:15:22.959Z,25.98
2024-04-05T14:16:22.935Z,26.06
2024-04-05T14:17:22.983Z,26.14
2024-04-05T14:18:23.031Z,26.13
2024-04-05T14:19:23.073Z,26.29
2024-04-05T14:20:23.118Z,26.62
2024-04-05T14:21:23.095Z,26.76
2024-04-05T14:22:23.134Z,26.70
2024-04-05T14:23:23.401Z,26.03
2024-04-05T14:24:23.185Z,26.30
2024-04-05T14:25:23.178Z,25.76
2024-04-05T14:26:23.192Z,26.01
2024-04-05T14:27:23.296Z,26.21
2024-04-05T14:28:23.347Z,26.39
2024-04-05T14:29:23.388Z,26.31
2024-04-05T14:30:23.382Z,26.55
2024-04-05T14:31:23.435Z,26.64
2024-04-05T14:32:23.484Z,26.54
2024-04-05T14:33:23.897Z,26.50
2024-04-05T14:34:23.608Z,26.86
2024-04-05T14:35:23.663Z,27.11
2024-04-05T14:36:23.717Z,26.38
2024-04-05T14:40:27.082Z,27.73
2024-04-05T14:40:52.064Z,27.21
2024-04-05T14:41:52.212Z,27.00
2024-04-05T14:43:20.933Z,26.64
2024-04-05T14:44:20.708Z,26.90
2024-04-05T14:44:52.075Z,27.23
2024-04-05T14:47:23.460Z,28.19
2024-04-05T14:47:56.407Z,27.25
2024-04-05T14:49:25.514Z,27.14
2024-04-05T14:49:56.408Z,27.28
2024-04-05T14:50:56.414Z,27.13
2024-04-05T14:51:56.450Z,26.91
2024-04-05T14:52:56.424Z,26.74
2024-04-05T14:53:57.006Z,26.83
2024-04-05T14:54:56.408Z,26.82
2024-04-05T14:55:56.415Z,27.15
2024-04-05T14:56:56.424Z,27.23
2024-04-05T14:57:56.483Z,27.33
2024-04-05T14:58:57.039Z,27.02
2024-04-05T14:59:56.550Z,27.19
2024-04-05T15:00:56.615Z,27.20
2024-04-05T15:01:56.610Z,27.35
2024-04-05T15:02:56.656Z,27.58
2024-04-05T15:03:56.766Z,27.50
2024-04-05T15:04:56.797Z,27.81
2024-04-05T15:05:56.998Z,27.60
2024-04-05T15:06:56.923Z,27.93
2024-04-05T15:07:57.027Z,27.74
2024-04-05T15:08:57.536Z,27.78
2024-04-05T15:09:57.099Z,27.84
2024-04-05T15:10:57.221Z,27.87
2024-04-05T15:11:58.115Z,28.03
2024-04-05T15:12:57.372Z,27.77
2024-04-05T15:13:57.581Z,28.01
2024-04-05T15:14:57.392Z,27.88
2024-04-05T15:15:57.546Z,27.83
2024-04-05T15:16:57.512Z,27.94
2024-04-05T15:17:57.590Z,27.73
2024-04-05T15:18:57.999Z,27.79
2024-04-05T15:19:57.595Z,27.96
2024-04-05T15:20:57.678Z,27.96
2024-04-05T15:21:57.731Z,27.92
2024-04-05T15:22:57.755Z,27.92
2024-04-05T15:23:57.824Z,27.63
2024-04-05T15:24:57.861Z,27.46
2024-04-05T15:25:57.890Z,27.56
2024-04-05T15:26:57.963Z,27.49
2024-04-05T15:27:58.000Z,27.65
2024-04-05T15:28:58.021Z,27.63
2024-04-05T15:29:58.068Z,27.85
2024-04-05T15:30:58.059Z,28.01
2024-04-05T15:31:58.130Z,28.13
2024-04-05T15:32:58.198Z,28.11
2024-04-05T15:33:58.546Z,28.29
2024-04-05T15:34:58.340Z,28.35
2024-04-05T15:35:58.375Z,28.28
2024-04-05T15:36:58.433Z,28.07
2024-04-05T15:37:58.432Z,28.17
2024-04-05T15:38:58.553Z,28.23
2024-04-05T15:39:58.523Z,28.16
2024-04-05T15:40:58.556Z,28.21
2024-04-05T15:41:58.558Z,28.19
2024-04-05T15:42:58.611Z,28.03
2024-04-05T15:43:58.653Z,28.07
2024-04-05T15:44:58.689Z,28.18
2024-04-05T15:45:58.693Z,28.22
2024-04-05T15:46:58.738Z,28.37
2024-04-05T15:47:58.813Z,28.65
2024-04-05T15:48:59.023Z,28.59
2024-04-05T15:49:58.900Z,28.71
2024-04-05T15:51:02.006Z,28.61
2024-04-05T15:51:58.960Z,28.71
2024-04-05T15:52:58.975Z,28.64
2024-04-05T15:53:58.947Z,28.73
2024-04-05T15:54:58.951Z,28.67
2024-04-05T15:55:58.980Z,28.79
2024-04-05T15:56:58.964Z,28.71
2024-04-05T15:57:58.948Z,28.86
2024-04-05T15:58:59.027Z,28.95
2024-04-05T15:59:58.993Z,29.06
2024-04-05T16:00:58.981Z,29.04
2024-04-05T16:01:59.012Z,28.94
2024-04-05T16:02:58.969Z,28.94
2024-04-05T16:03:58.991Z,28.48
2024-04-05T16:04:58.985Z,28.72
2024-04-05T16:05:58.976Z,28.82